Time;durP1;ratioP1;P1;durP2;ratioP2;P2;SDS_P1;SDS_P2;PMS_P1;PMS_P2;Temp;Humidity;BMP_temperature;BMP_pressure;BME280_temperature;BME280_humidity;BME280_pressure;Samples;Min_cycle;Max_cycle;Signal;HPM_P1;HPM_P2
2024/03/27 00:01:53;;;;;;;21.60;11.00;;;;;;;5.75;74.38;99540.48;106721;1248;70586;-77
2024/03/27 00:04:21;;;;;;;20.20;12.20;;;;;;;5.82;73.96;99538.52;106817;1249;72038;-78
2024/03/27 00:06:48;;;;;;;22.60;12.80;;;;;;;5.71;73.17;99533.23;106550;1255;61171;-78
2024/03/27 00:09:16;;;;;;;21.90;14.00;;;;;;;5.56;73.06;99534.45;106940;1248;60044;-77
2024/03/27 00:11:43;;;;;;;22.40;13.70;;;;;;;5.35;72.77;99537.04;106486;1251;77166;-76
2024/03/27 00:14:11;;;;;;;21.30;14.00;;;;;;;5.17;73.09;99539.40;106730;1252;69415;-78
2024/03/27 00:16:38;;;;;;;22.20;14.20;;;;;;;5.07;73.32;99545.61;106505;1248;71435;-78
2024/03/27 00:19:05;;;;;;;23.10;15.30;;;;;;;4.92;73.52;99550.91;105818;1251;61246;-77
2024/03/27 00:21:33;;;;;;;14.60;10.90;;;;;;;4.75;74.06;99558.21;107005;1248;64473;-77
2024/03/27 00:24:00;;;;;;;12.50;9.50;;;;;;;4.64;75.65;99563.79;107114;1248;74678;-78
2024/03/27 00:26:28;;;;;;;15.90;8.50;;;;;;;4.72;76.84;99561.27;106735;1249;71251;-79
2024/03/27 00:28:55;;;;;;;17.90;12.30;;;;;;;4.85;77.28;99559.41;106505;1254;70479;-78
2024/03/27 00:31:23;;;;;;;22.20;14.10;;;;;;;4.88;77.01;99563.23;106619;1251;61157;-76
2024/03/27 00:33:51;;;;;;;13.00;8.40;;;;;;;4.83;77.16;99564.76;106579;1251;61321;-75
2024/03/27 00:36:18;;;;;;;19.70;11.80;;;;;;;4.80;78.42;99561.60;106526;1248;73466;-79
2024/03/27 00:38:45;;;;;;;14.00;9.20;;;;;;;4.81;78.80;99560.48;105650;1248;70651;-77
2024/03/27 00:41:13;;;;;;;22.10;14.00;;;;;;;4.81;78.53;99562.61;106564;1253;75220;-77
2024/03/27 00:43:40;;;;;;;14.20;9.10;;;;;;;4.77;78.14;99565.76;107905;1248;61310;-77
2024/03/27 00:46:08;;;;;;;23.10;12.00;;;;;;;4.82;78.08;99571.64;108611;1248;61671;-76
2024/03/27 00:48:35;;;;;;;23.50;15.00;;;;;;;4.88;77.34;99571.66;107853;1248;73127;-78
2024/03/27 00:51:02;;;;;;;22.40;14.30;;;;;;;4.83;76.98;99570.13;106821;1248;68970;-75
2024/03/27 00:53:32;;;;;;;20.70;14.50;;;;;;;4.75;77.34;99574.04;106593;1248;70685;-80
2024/03/27 00:56:00;;;;;;;23.20;16.00;;;;;;;4.68;77.36;99579.34;106560;1254;61119;-80
2024/03/27 00:58:28;;;;;;;30.20;18.10;;;;;;;4.64;77.32;99583.20;106613;1248;61161;-77
2024/03/27 01:00:56;;;;;;;24.90;18.20;;;;;;;4.61;77.24;99577.73;106542;1248;73208;-78
2024/03/27 01:03:24;;;;;;;13.00;7.50;;;;;;;4.57;77.58;99577.17;106571;1248;70339;-78
2024/03/27 01:05:51;;;;;;;14.60;8.10;;;;;;;4.56;77.94;99577.96;106517;1248;73471;-79
2024/03/27 01:08:20;;;;;;;13.50;7.90;;;;;;;4.68;78.53;99575.16;106427;1252;61169;-79
2024/03/27 01:10:50;;;;;;;11.20;7.60;;;;;;;4.83;78.45;99573.30;106594;1250;61301;-78
2024/03/27 01:13:18;;;;;;;10.40;7.50;;;;;;;4.88;78.69;99573.19;105875;1248;76892;-79
2024/03/27 01:15:51;;;;;;;14.50;8.00;;;;;;;4.91;79.12;99574.71;106810;1251;69915;-77
2024/03/27 01:18:19;;;;;;;12.60;8.60;;;;;;;4.94;79.44;99575.65;106708;1249;71160;-77
2024/03/27 01:20:46;;;;;;;16.60;10.20;;;;;;;4.97;79.49;99576.98;106816;1252;61197;-75
2024/03/27 01:23:13;;;;;;;16.10;10.10;;;;;;;4.96;79.27;99581.45;106366;1248;61943;-78
2024/03/27 01:25:41;;;;;;;11.40;8.30;;;;;;;4.96;78.88;99578.52;106778;1248;74189;-75
2024/03/27 01:28:10;;;;;;;11.90;7.30;;;;;;;5.05;78.73;99586.10;106547;1248;70159;-77
2024/03/27 01:30:37;;;;;;;14.40;10.50;;;;;;;5.14;78.61;99581.81;106641;1250;71054;-79
2024/03/27 01:33:04;;;;;;;16.00;11.10;;;;;;;5.12;78.43;99589.35;106554;1253;61194;-78
2024/03/27 01:35:32;;;;;;;18.00;12.90;;;;;;;4.96;77.28;99586.55;105966;1251;61457;-80
2024/03/27 01:37:59;;;;;;;19.50;13.20;;;;;;;4.84;77.46;99591.65;107211;1248;74672;-79
2024/03/27 01:40:27;;;;;;;20.40;14.40;;;;;;;4.77;77.73;99597.34;109007;1248;68948;-77
2024/03/27 01:43:00;;;;;;;13.80;9.50;;;;;;;4.73;77.72;99603.67;108720;1252;70090;-80
2024/03/27 01:45:28;;;;;;;13.40;9.80;;;;;;;4.71;78.40;99605.94;106644;1248;61208;-78
2024/03/27 01:47:55;;;;;;;14.60;9.80;;;;;;;4.80;78.73;99613.05;106179;1248;61214;-79
2024/03/27 01:50:24;;;;;;;13.50;10.30;;;;;;;4.90;78.85;99610.10;106003;1249;74672;-80
2024/03/27 01:52:52;;;;;;;16.00;12.50;;;;;;;4.93;79.05;99615.77;106334;1248;70316;-75
2024/03/27 01:55:20;;;;;;;16.50;11.50;;;;;;;4.92;78.95;99616.00;106319;1251;72286;-76
2024/03/27 01:57:47;;;;;;;14.80;11.30;;;;;;;4.85;78.43;99617.52;105702;1253;61286;-78
2024/03/27 02:00:15;;;;;;;18.90;13.20;;;;;;;4.72;78.07;99618.66;106213;1248;61177;-77
2024/03/27 02:02:43;;;;;;;25.60;18.20;;;;;;;4.59;78.03;99622.07;106402;1248;73446;-78
2024/03/27 02:05:10;;;;;;;26.50;19.70;;;;;;;4.49;78.02;99625.33;106204;1249;71252;-76
2024/03/27 02:07:38;;;;;;;22.40;16.40;;;;;;;4.43;77.92;99622.95;106136;1247;72907;-77
2024/03/27 02:10:07;;;;;;;17.40;12.70;;;;;;;4.45;77.50;99621.16;106241;1248;61331;-77
2024/03/27 02:12:35;;;;;;;21.70;13.50;;;;;;;4.48;77.52;99616.36;106323;1248;61322;-77
2024/03/27 02:15:03;;;;;;;18.30;12.20;;;;;;;4.39;77.50;99614.67;106330;1253;74582;-77
2024/03/27 02:17:31;;;;;;;19.60;12.90;;;;;;;4.25;77.93;99612.34;106210;1248;68856;-77
2024/03/27 02:19:58;;;;;;;23.10;16.40;;;;;;;4.13;78.26;99610.56;106246;1250;73822;-78
2024/03/27 02:22:40;;;;;;;15.70;11.30;;;;;;;4.05;78.49;99613.34;106468;1249;61324;-77
2024/03/27 02:25:27;;;;;;;13.00;9.70;;;;;;;4.01;79.24;99618.22;106384;1250;61255;-77
2024/03/27 02:27:54;;;;;;;13.00;9.10;;;;;;;4.12;80.17;99621.52;106290;1248;74705;-75
2024/03/27 02:30:21;;;;;;;14.50;10.40;;;;;;;4.27;80.36;99624.96;106616;1252;67718;-78
2024/03/27 02:32:49;;;;;;;14.30;10.40;;;;;;;4.34;80.93;99628.08;106794;1248;72834;-76
2024/03/27 02:35:19;;;;;;;12.20;9.20;;;;;;;4.38;81.46;99628.96;108668;1248;61134;-78
2024/03/27 02:37:46;;;;;;;14.10;9.90;;;;;;;4.42;81.39;99630.89;108586;1253;60956;-77
2024/03/27 02:40:13;;;;;;;15.40;10.60;;;;;;;4.46;81.54;99637.39;105948;1254;72850;-76
2024/03/27 02:42:41;;;;;;;15.60;11.40;;;;;;;4.54;81.38;99636.90;106403;1254;70640;-76
2024/03/27 02:45:08;;;;;;;15.20;11.80;;;;;;;4.66;81.09;99639.52;106375;1254;73167;-78
2024/03/27 02:47:37;;;;;;;17.40;12.00;;;;;;;4.71;81.60;99643.47;106347;1248;61311;-79
2024/03/27 02:50:04;;;;;;;16.20;11.90;;;;;;;4.69;81.60;99640.99;106307;1252;61849;-78
2024/03/27 02:52:32;;;;;;;19.50;15.20;;;;;;;4.69;81.29;99638.75;106570;1249;73386;-77
2024/03/27 02:54:59;;;;;;;22.70;16.80;;;;;;;4.61;80.46;99641.16;106339;1254;67834;-75
2024/03/27 02:57:26;;;;;;;25.70;17.20;;;;;;;4.47;79.97;99643.63;106398;1248;74487;-76
2024/03/27 02:59:53;;;;;;;22.30;15.00;;;;;;;4.41;79.53;99646.22;106311;1248;61156;-75
2024/03/27 03:02:20;;;;;;;23.00;15.60;;;;;;;4.39;79.43;99640.67;106288;1250;61300;-79
2024/03/27 03:04:48;;;;;;;34.20;22.00;;;;;;;4.30;79.46;99638.55;106178;1248;76011;-76
2024/03/27 03:07:15;;;;;;;34.20;26.20;;;;;;;4.16;79.02;99632.77;106293;1254;69179;-78
2024/03/27 03:09:42;;;;;;;34.40;25.90;;;;;;;3.96;78.76;99634.79;106224;1252;72682;-77
2024/03/27 03:12:10;;;;;;;35.20;25.70;;;;;;;3.78;79.21;99634.84;106727;1249;61513;-76
2024/03/27 03:14:37;;;;;;;33.60;24.30;;;;;;;3.71;79.46;99633.50;107601;1249;61049;-76
2024/03/27 03:17:04;;;;;;;32.80;24.50;;;;;;;3.66;79.57;99638.11;106597;1249;73331;-77
2024/03/27 03:19:32;;;;;;;33.20;24.20;;;;;;;3.69;79.55;99638.05;106119;1248;70242;-76
2024/03/27 03:21:59;;;;;;;35.60;24.80;;;;;;;3.71;79.37;99636.27;106311;1249;71413;-78
2024/03/27 03:24:27;;;;;;;32.30;25.60;;;;;;;3.66;79.47;99639.20;107747;1248;61163;-77
2024/03/27 03:26:54;;;;;;;28.10;20.40;;;;;;;3.58;79.82;99641.05;106895;1250;61131;-75
2024/03/27 03:29:21;;;;;;;22.20;16.20;;;;;;;3.50;80.02;99644.89;108549;1248;74709;-77
2024/03/27 03:31:48;;;;;;;20.00;15.30;;;;;;;3.43;80.86;99648.77;109107;1248;68707;-76
2024/03/27 03:34:16;;;;;;;25.30;19.20;;;;;;;3.41;81.60;99649.61;107179;1254;71112;-78
2024/03/27 03:36:43;;;;;;;26.60;19.30;;;;;;;3.46;81.26;99647.79;106525;1254;61236;-77
2024/03/27 03:39:10;;;;;;;29.40;20.50;;;;;;;3.50;80.90;99650.25;106427;1248;61412;-75
2024/03/27 03:41:38;;;;;;;33.80;24.90;;;;;;;3.44;81.19;99652.91;106346;1252;75025;-77
2024/03/27 03:44:05;;;;;;;32.60;24.60;;;;;;;3.32;81.36;99655.25;106184;1248;70222;-78
2024/03/27 03:46:32;;;;;;;35.30;25.80;;;;;;;3.22;81.80;99660.27;106231;1257;71737;-75
2024/03/27 03:48:59;;;;;;;32.00;25.20;;;;;;;3.13;82.13;99662.38;106331;1250;61414;-76
2024/03/27 03:51:27;;;;;;;27.80;17.60;;;;;;;3.04;82.51;99662.56;106177;1248;61418;-76
2024/03/27 03:53:54;;;;;;;25.30;18.20;;;;;;;3.07;82.78;99663.52;105820;1249;75651;-78
2024/03/27 03:56:21;;;;;;;18.80;14.40;;;;;;;3.16;82.86;99670.14;106177;1254;69980;-78
2024/03/27 03:58:49;;;;;;;11.60;8.30;;;;;;;3.20;83.93;99670.06;106411;1249;72751;-79
2024/03/27 04:01:16;;;;;;;17.10;11.50;;;;;;;3.24;85.29;99670.75;106323;1248;61705;-77
2024/03/27 04:03:43;;;;;;;25.90;17.30;;;;;;;3.32;85.85;99670.30;106297;1257;61291;-76
2024/03/27 04:06:11;;;;;;;24.20;18.10;;;;;;;3.42;85.62;99674.45;106372;1248;73372;-76
2024/03/27 04:08:38;;;;;;;20.30;14.40;;;;;;;3.52;84.89;99676.91;106364;1250;70167;-77
2024/03/27 04:11:05;;;;;;;18.50;13.50;;;;;;;3.62;83.84;99671.70;106346;1248;70604;-79
2024/03/27 04:13:33;;;;;;;15.70;11.60;;;;;;;3.66;84.16;99669.66;106253;1248;61890;-77
2024/03/27 04:16:01;;;;;;;21.10;15.10;;;;;;;3.70;84.24;99670.59;106219;1254;60395;-77
2024/03/27 04:18:28;;;;;;;27.30;18.60;;;;;;;3.71;84.26;99671.17;106315;1248;73415;-76
2024/03/27 04:20:55;;;;;;;22.80;17.40;;;;;;;3.74;84.42;99667.06;106358;1252;69307;-77
2024/03/27 04:23:23;;;;;;;31.30;23.10;;;;;;;3.80;84.13;99668.52;107277;1248;71892;-77
2024/03/27 04:25:50;;;;;;;31.70;20.40;;;;;;;3.81;83.31;99670.51;109260;1248;60899;-77
2024/03/27 04:28:34;;;;;;;27.30;19.10;;;;;;;3.90;82.60;99674.52;108061;1248;59462;-77
2024/03/27 04:31:05;;;;;;;28.50;21.20;;;;;;;3.95;81.54;99677.09;106479;1249;76561;-76
2024/03/27 04:33:32;;;;;;;30.70;20.90;;;;;;;3.88;81.19;99678.52;106491;1248;70282;-78
2024/03/27 04:35:59;;;;;;;26.80;19.80;;;;;;;3.80;81.37;99682.34;106289;1254;72624;-79
2024/03/27 04:38:27;;;;;;;29.00;20.90;;;;;;;3.75;81.58;99682.02;106614;1249;61185;-77
2024/03/27 04:40:56;;;;;;;31.40;20.60;;;;;;;3.75;81.88;99682.75;106387;1248;185156;-79
2024/03/27 04:45:13;;;;;;;30.30;17.70;;;;;;;3.88;81.94;99672.77;104044;1292;600103;-78
2024/03/27 04:47:41;;;;;;;25.50;18.00;;;;;;;4.02;81.61;99668.25;106088;1274;61821;-76
2024/03/27 04:50:08;;;;;;;26.90;17.90;;;;;;;4.13;81.45;99667.19;105703;1267;59733;-78
2024/03/27 04:52:36;;;;;;;26.70;18.50;;;;;;;4.23;81.61;99667.95;106658;1266;73043;-77
2024/03/27 04:55:04;;;;;;;24.50;16.30;;;;;;;4.31;81.43;99670.87;108058;1266;69601;-78
2024/03/27 04:57:31;;;;;;;23.70;18.00;;;;;;;4.42;81.63;99669.95;108131;1270;71545;-78
2024/03/27 04:59:59;;;;;;;26.20;18.60;;;;;;;4.54;81.56;99663.35;107591;1270;173327;-78
2024/03/27 05:02:26;;;;;;;24.20;18.20;;;;;;;4.69;81.38;99664.71;105566;1279;60024;-77
2024/03/27 05:04:53;;;;;;;24.30;16.70;;;;;;;4.90;80.64;99668.01;105496;1270;71838;-78
2024/03/27 05:07:20;;;;;;;21.00;16.20;;;;;;;5.09;79.86;99671.56;106604;1264;69919;-77
2024/03/27 05:09:49;;;;;;;24.80;17.90;;;;;;;5.17;79.43;99669.88;106278;1268;71621;-76
2024/03/27 05:12:17;;;;;;;22.30;17.70;;;;;;;5.21;79.28;99663.73;105337;1267;60524;-77
2024/03/27 05:14:44;;;;;;;24.90;18.00;;;;;;;5.29;79.03;99661.60;105345;1264;62028;-77
2024/03/27 05:17:12;;;;;;;26.30;17.40;;;;;;;5.30;78.65;99659.15;105803;1264;72628;-78
2024/03/27 05:19:40;;;;;;;25.50;18.50;;;;;;;5.35;78.65;99663.02;107575;1264;69449;-76
2024/03/27 05:22:15;;;;;;;26.60;18.40;;;;;;;5.39;78.45;99667.10;108105;1264;73312;-77
2024/03/27 05:24:43;;;;;;;26.80;18.20;;;;;;;5.43;78.00;99664.61;105661;1270;60512;-77
2024/03/27 05:27:10;;;;;;;23.60;17.20;;;;;;;5.54;78.15;99663.09;105486;1264;60499;-76
2024/03/27 05:29:37;;;;;;;25.20;19.10;;;;;;;5.68;77.96;99661.80;104985;1269;73778;-81
2024/03/27 05:32:05;;;;;;;33.60;19.30;;;;;;;5.74;77.78;99664.10;105067;1264;70421;-77
2024/03/27 05:34:33;;;;;;;24.80;19.30;;;;;;;5.75;77.84;99663.27;105164;1264;70851;-78
2024/03/27 05:37:00;;;;;;;29.50;21.50;;;;;;;5.76;77.72;99664.64;105248;1267;60465;-76
2024/03/27 05:39:28;;;;;;;31.70;24.10;;;;;;;5.82;77.95;99670.16;105341;1264;60519;-74
2024/03/27 05:41:56;;;;;;;33.20;24.40;;;;;;;5.87;77.77;99675.41;105375;1270;72542;-77
2024/03/27 05:44:23;;;;;;;35.70;24.70;;;;;;;5.91;77.93;99678.19;105943;1260;68955;-77
2024/03/27 05:46:50;;;;;;;32.50;23.90;;;;;;;5.98;77.97;99677.38;105730;1265;71428;-78
2024/03/27 05:49:18;;;;;;;39.90;30.50;;;;;;;6.19;77.51;99683.36;105698;1263;60544;-76
2024/03/27 05:51:45;;;;;;;38.80;28.50;;;;;;;6.40;76.85;99685.35;105702;1258;60483;-78
2024/03/27 05:54:12;;;;;;;36.70;27.90;;;;;;;6.46;76.85;99687.91;105730;1257;73882;-79
2024/03/27 05:56:39;;;;;;;38.80;30.00;;;;;;;6.60;76.95;99692.06;105755;1263;68934;-78
2024/03/27 05:59:07;;;;;;;40.00;30.90;;;;;;;6.77;76.72;99695.45;105615;1257;72920;-78
2024/03/27 06:01:34;;;;;;;39.10;29.80;;;;;;;6.86;76.09;99695.15;105731;1263;60508;-79
2024/03/27 06:04:01;;;;;;;36.70;29.00;;;;;;;7.00;75.65;99696.92;105654;1257;60511;-78
2024/03/27 06:06:29;;;;;;;42.90;31.70;;;;;;;7.13;74.85;99696.99;105639;1257;73071;-78
2024/03/27 06:08:56;;;;;;;40.80;31.10;;;;;;;7.23;74.38;99697.35;105669;1263;70338;-77
2024/03/27 06:11:24;;;;;;;35.90;27.00;;;;;;;7.39;73.79;99697.83;105809;1257;73161;-78
2024/03/27 06:13:51;;;;;;;20.00;15.20;;;;;;;7.51;72.81;99697.49;107131;1257;60550;-78
2024/03/27 06:16:18;;;;;;;24.60;15.40;;;;;;;7.61;70.60;99698.30;107785;1260;60968;-78
2024/03/27 06:18:50;;;;;;;15.90;10.90;;;;;;;7.70;69.31;99703.20;106688;1262;73830;-78
2024/03/27 06:21:18;;;;;;;14.20;8.80;;;;;;;7.77;65.72;99703.83;106539;1263;69285;-76
2024/03/27 06:23:48;;;;;;;20.60;11.80;;;;;;;7.78;64.51;99705.64;105904;1263;72133;-77
2024/03/27 06:26:16;;;;;;;15.80;10.10;;;;;;;7.80;64.10;99707.07;105541;1257;60796;-75
2024/03/27 06:28:43;;;;;;;20.90;11.10;;;;;;;7.84;63.62;99705.72;105745;1258;60423;-77
2024/03/27 06:31:11;;;;;;;17.80;11.60;;;;;;;7.88;62.77;99701.30;105483;1264;73926;-78
2024/03/27 06:33:38;;;;;;;23.60;14.00;;;;;;;7.93;62.56;99703.48;105706;1258;70611;-77
2024/03/27 06:36:06;;;;;;;14.30;10.80;;;;;;;7.99;62.04;99706.52;105719;1261;72837;-79
2024/03/27 06:38:40;;;;;;;14.90;7.80;;;;;;;8.03;60.64;99705.63;105773;1263;60459;-79
2024/03/27 06:41:07;;;;;;;12.90;7.20;;;;;;;8.06;59.65;99711.64;105890;1256;61376;-76
2024/03/27 06:43:34;;;;;;;8.20;5.60;;;;;;;8.12;58.68;99708.52;106036;1260;76210;-77
2024/03/27 06:46:02;;;;;;;9.60;6.90;;;;;;;8.15;56.97;99709.00;106085;1260;68791;-78
2024/03/27 06:48:43;;;;;;;13.30;7.80;;;;;;;8.18;57.25;99707.75;106225;1257;73605;-76
2024/03/27 06:51:10;;;;;;;12.30;7.30;;;;;;;8.22;57.63;99705.73;107340;1258;59243;-76
2024/03/27 06:53:37;;;;;;;7.80;5.00;;;;;;;8.25;57.35;99704.34;106236;1256;60303;-75
2024/03/27 06:56:05;;;;;;;9.50;4.20;;;;;;;8.29;55.68;99707.30;106074;1257;72561;-80
2024/03/27 06:58:34;;;;;;;8.10;4.50;;;;;;;8.33;55.41;99711.55;107631;1257;71556;-77
2024/03/27 07:01:02;;;;;;;8.40;4.10;;;;;;;8.36;55.55;99715.41;106301;1257;73203;-80
2024/03/27 07:03:43;;;;;;;9.40;4.40;;;;;;;8.40;54.70;99714.45;106724;1259;60429;-79
2024/03/27 07:06:15;;;;;;;8.80;4.60;;;;;;;8.43;54.64;99707.30;107378;1254;60312;-77
2024/03/27 07:08:42;;;;;;;8.00;5.40;;;;;;;8.50;54.50;99709.61;107211;1257;73897;-77
2024/03/27 07:11:10;;;;;;;9.70;5.00;;;;;;;8.56;54.20;99709.39;107172;1257;69442;-78
2024/03/27 07:13:37;;;;;;;7.70;4.70;;;;;;;8.64;52.66;99708.38;106542;1256;73901;-77
2024/03/27 07:16:07;;;;;;;11.80;3.80;;;;;;;8.68;51.47;99708.54;106079;1257;62305;-77
2024/03/27 07:18:34;;;;;;;7.30;4.20;;;;;;;8.69;51.14;99705.18;105989;1257;61922;-78
2024/03/27 07:21:02;;;;;;;7.70;3.60;;;;;;;8.74;51.03;99707.73;106091;1257;76410;-78
2024/03/27 07:23:29;;;;;;;5.30;3.00;;;;;;;8.78;50.45;99709.61;106117;1257;68298;-78
2024/03/27 07:25:57;;;;;;;9.60;5.00;;;;;;;8.83;50.22;99706.06;106296;1259;71617;-79
2024/03/27 07:28:24;;;;;;;9.70;6.50;;;;;;;8.87;50.63;99710.84;105958;1258;61011;-77
2024/03/27 07:30:51;;;;;;;14.80;7.70;;;;;;;8.87;51.20;99706.90;106072;1261;60393;-77
2024/03/27 07:33:33;;;;;;;12.30;7.10;;;;;;;8.92;51.59;99700.55;105909;1255;72668;-78
2024/03/27 07:36:00;;;;;;;12.10;7.40;;;;;;;8.95;51.80;99704.16;105967;1259;70343;-78
2024/03/27 07:38:28;;;;;;;12.40;7.00;;;;;;;8.99;52.05;99701.77;105819;1257;72280;-78
2024/03/27 07:40:55;;;;;;;11.70;7.50;;;;;;;9.07;51.53;99699.55;105795;1258;61021;-80
2024/03/27 07:43:23;;;;;;;9.20;6.20;;;;;;;9.15;51.52;99700.14;105678;1257;62196;-78
2024/03/27 07:45:50;;;;;;;9.90;6.10;;;;;;;9.21;51.11;99696.98;105781;1262;73810;-78
2024/03/27 07:48:18;;;;;;;11.20;6.90;;;;;;;9.30;51.07;99693.84;106099;1259;71730;-78
2024/03/27 07:50:45;;;;;;;9.40;6.40;;;;;;;9.33;50.92;99689.14;106261;1256;74994;-77
2024/03/27 07:53:13;;;;;;;12.70;8.00;;;;;;;9.33;51.15;99684.86;106050;1257;62256;-78
2024/03/27 07:55:41;;;;;;;14.60;8.10;;;;;;;9.33;51.46;99683.11;106004;1262;60395;-78
2024/03/27 07:58:08;;;;;;;16.50;9.30;;;;;;;9.39;51.46;99686.00;106570;1254;75741;-80
2024/03/27 08:00:35;;;;;;;12.80;7.90;;;;;;;9.45;51.97;99685.33;106297;1253;71282;-79
2024/03/27 08:03:03;;;;;;;14.50;8.60;;;;;;;9.56;51.76;99672.55;106369;1254;74237;-79
2024/03/27 08:05:31;;;;;;;16.20;9.20;;;;;;;9.65;51.90;99679.20;108294;1253;60445;-79
2024/03/27 08:07:59;;;;;;;13.30;8.40;;;;;;;9.73;51.65;99687.00;108360;1254;59369;-78
2024/03/27 08:10:29;;;;;;;13.10;7.50;;;;;;;9.78;51.48;99686.48;107921;1253;73824;-79
2024/03/27 08:12:57;;;;;;;14.10;7.80;;;;;;;9.83;51.45;99683.30;106936;1260;70558;-79
2024/03/27 08:15:24;;;;;;;13.00;7.00;;;;;;;9.92;51.74;99681.55;106588;1253;72073;-78
2024/03/27 08:17:51;;;;;;;12.80;7.00;;;;;;;10.08;51.33;99679.20;106459;1253;62422;-78
2024/03/27 08:20:18;;;;;;;9.70;6.00;;;;;;;10.23;50.58;99676.10;106533;1253;61191;-80
2024/03/27 08:22:46;;;;;;;11.60;5.30;;;;;;;10.31;49.79;99672.56;106242;1257;74022;-80
2024/03/27 08:25:13;;;;;;;11.20;5.20;;;;;;;10.38;49.51;99663.30;106438;1253;69961;-79
2024/03/27 08:27:41;;;;;;;7.80;4.20;;;;;;;10.52;49.17;99662.40;106753;1254;73700;-76
2024/03/27 08:30:08;;;;;;;8.80;4.50;;;;;;;10.68;48.47;99661.49;106866;1253;62443;-79
2024/03/27 08:32:36;;;;;;;6.60;3.90;;;;;;;10.83;47.72;99656.93;106478;1257;60512;-77
2024/03/27 08:35:04;;;;;;;7.40;3.90;;;;;;;10.99;47.33;99655.91;107415;1253;73117;-76
2024/03/27 08:37:31;;;;;;;7.20;4.10;;;;;;;11.13;47.01;99653.55;106892;1253;69373;-78
2024/03/27 08:39:59;;;;;;;7.00;4.10;;;;;;;11.29;46.59;99654.95;106483;1258;74431;-76
2024/03/27 08:42:27;;;;;;;6.40;3.60;;;;;;;11.46;46.23;99659.66;106458;1254;61270;-79
2024/03/27 08:44:55;;;;;;;6.80;3.70;;;;;;;11.58;45.62;99652.11;106295;1251;62439;-79
2024/03/27 08:47:22;;;;;;;6.80;4.00;;;;;;;11.72;45.12;99649.40;106529;1257;75419;-79
2024/03/27 08:49:49;;;;;;;5.10;3.30;;;;;;;11.86;44.43;99644.84;106624;1253;69064;-79
2024/03/27 08:52:17;;;;;;;7.40;3.40;;;;;;;12.01;43.80;99643.53;106279;1257;75234;-78
2024/03/27 08:54:44;;;;;;;7.50;3.70;;;;;;;12.12;43.14;99639.18;106065;1254;61245;-79
2024/03/27 08:57:11;;;;;;;5.60;3.40;;;;;;;12.22;42.76;99647.44;106253;1257;61334;-78
2024/03/27 08:59:39;;;;;;;6.60;3.50;;;;;;;12.28;42.99;99641.42;106764;1252;77000;-80
2024/03/27 09:02:06;;;;;;;6.80;3.50;;;;;;;12.45;42.80;99642.30;108936;1253;71157;-78
2024/03/27 09:04:35;;;;;;;5.90;3.50;;;;;;;12.66;42.56;99636.98;108593;1257;74780;-76
2024/03/27 09:07:03;;;;;;;6.70;3.60;;;;;;;12.88;42.28;99643.50;107018;1253;62122;-79
2024/03/27 09:09:30;;;;;;;6.50;3.50;;;;;;;13.09;41.35;99647.23;106963;1253;60940;-81
2024/03/27 09:11:58;;;;;;;5.70;3.40;;;;;;;13.23;40.92;99645.12;106898;1253;72618;-79
2024/03/27 09:14:26;;;;;;;6.10;3.40;;;;;;;13.52;40.83;99636.76;106865;1253;69523;-80
2024/03/27 09:16:54;;;;;;;5.70;3.50;;;;;;;14.05;40.38;99631.52;106356;1257;73673;-80
2024/03/27 09:19:21;;;;;;;7.00;4.00;;;;;;;14.70;39.77;99628.48;106792;1253;61263;-80
2024/03/27 09:21:49;;;;;;;4.10;3.30;;;;;;;15.42;39.06;99623.73;106589;1253;61222;-80
2024/03/27 09:24:16;;;;;;;5.40;4.10;;;;;;;16.12;37.86;99624.20;107318;1257;75835;-79
2024/03/27 09:26:44;;;;;;;6.80;3.70;;;;;;;16.72;37.00;99629.49;106708;1257;70975;-79
2024/03/27 09:29:12;;;;;;;6.50;3.90;;;;;;;17.22;36.61;99632.63;106768;1252;74454;-79
2024/03/27 09:31:39;;;;;;;5.00;3.90;;;;;;;17.75;34.99;99635.71;106716;1253;61250;-79
2024/03/27 09:34:07;;;;;;;5.00;3.40;;;;;;;18.17;34.35;99631.77;107090;1252;61112;-79
2024/03/27 09:36:35;;;;;;;3.50;3.20;;;;;;;18.62;33.91;99623.76;107329;1253;76877;-77
2024/03/27 09:39:02;;;;;;;6.30;3.60;;;;;;;19.10;33.21;99627.80;106759;1253;69675;-81
2024/03/27 09:41:30;;;;;;;4.50;3.00;;;;;;;19.52;32.22;99620.79;106496;1254;73559;-82
2024/03/27 09:43:57;;;;;;;5.20;3.00;;;;;;;19.81;32.18;99620.86;106431;1253;61257;-78
2024/03/27 09:46:24;;;;;;;5.90;3.70;;;;;;;20.16;31.99;99616.42;106598;1253;63015;-78
2024/03/27 09:48:53;;;;;;;4.40;3.40;;;;;;;20.55;31.33;99608.99;106605;1257;75047;-79
2024/03/27 09:51:20;;;;;;;4.20;2.90;;;;;;;20.93;30.76;99609.20;106721;1256;73411;-80
2024/03/27 09:53:47;;;;;;;4.30;3.00;;;;;;;21.25;30.54;99606.75;106766;1253;72788;-79
2024/03/27 09:56:15;;;;;;;6.80;3.50;;;;;;;21.63;30.26;99605.95;107861;1257;59923;-81
2024/03/27 09:58:43;;;;;;;5.30;4.40;;;;;;;21.98;30.46;99599.91;108887;1253;59363;-81
2024/03/27 10:01:10;;;;;;;5.30;4.30;;;;;;;22.44;30.28;99603.80;108118;1257;74150;-82
2024/03/27 10:03:38;;;;;;;5.20;3.70;;;;;;;23.01;29.71;99606.70;107172;1253;72359;-80
2024/03/27 10:06:05;;;;;;;6.10;4.10;;;;;;;23.49;28.34;99607.84;107198;1257;72516;-81
2024/03/27 10:08:33;;;;;;;4.50;4.10;;;;;;;23.70;28.54;99604.98;106972;1253;62516;-79
2024/03/27 10:11:01;;;;;;;5.80;4.10;;;;;;;23.88;27.92;99599.95;107512;1253;61059;-81
2024/03/27 10:13:28;;;;;;;4.20;3.80;;;;;;;23.93;28.04;99605.73;107698;1253;75702;-81
2024/03/27 10:15:56;;;;;;;5.00;3.70;;;;;;;24.06;27.85;99602.52;107473;1255;71397;-86
2024/03/27 10:18:25;;;;;;;4.00;3.60;;;;;;;24.11;27.73;99607.13;108117;1253;73607;-81
2024/03/27 10:20:53;;;;;;;6.50;4.10;;;;;;;24.10;27.35;99608.96;108345;1255;59425;-78
2024/03/27 10:23:22;;;;;;;3.50;3.20;;;;;;;24.17;27.69;99601.79;108368;1253;60460;-76
2024/03/27 10:25:50;;;;;;;4.50;3.60;;;;;;;24.51;27.56;99596.19;108323;1252;74862;-80
2024/03/27 10:28:17;;;;;;;6.30;3.50;;;;;;;24.88;26.82;99592.84;108040;1257;71252;-78
2024/03/27 10:30:45;;;;;;;4.20;3.80;;;;;;;24.94;26.79;99596.35;106473;1258;73042;-79
2024/03/27 10:33:12;;;;;;;4.30;3.90;;;;;;;25.07;26.54;99593.39;106312;1254;61413;-79
2024/03/27 10:35:44;;;;;;;4.50;4.10;;;;;;;25.01;25.90;99589.23;106428;1253;61217;-78
2024/03/27 10:38:11;;;;;;;4.70;3.90;;;;;;;24.77;26.60;99582.36;106444;1254;74996;-79
2024/03/27 10:40:39;;;;;;;4.80;4.00;;;;;;;24.87;26.66;99579.15;106643;1253;70729;-77
2024/03/27 10:43:14;;;;;;;5.40;4.80;;;;;;;25.18;26.52;99575.59;106208;1253;73546;-75
2024/03/27 10:45:41;;;;;;;6.50;4.60;;;;;;;25.42;26.67;99575.06;106177;1253;61516;-74
2024/03/27 10:48:09;;;;;;;5.20;4.70;;;;;;;25.65;26.43;99573.55;106024;1257;62233;-72
2024/03/27 10:50:37;;;;;;;5.20;4.70;;;;;;;25.68;26.51;99571.27;107203;1253;79270;-74
2024/03/27 10:53:05;;;;;;;6.40;4.80;;;;;;;25.61;26.32;99571.54;107560;1254;71857;-75
2024/03/27 10:55:36;;;;;;;4.60;4.20;;;;;;;25.60;26.49;99565.60;106879;1254;70901;-73
2024/03/27 10:58:03;;;;;;;4.60;4.10;;;;;;;26.04;26.11;99560.09;106561;1255;61172;-82
2024/03/27 11:00:31;;;;;;;4.90;3.80;;;;;;;26.33;26.09;99567.34;106728;1253;61226;-78
2024/03/27 11:02:59;;;;;;;4.50;4.10;;;;;;;26.61;25.88;99562.03;106406;1253;76944;-79
2024/03/27 11:05:30;;;;;;;4.00;3.60;;;;;;;26.96;25.47;99559.70;106244;1253;70042;-78
2024/03/27 11:07:59;;;;;;;4.50;4.20;;;;;;;27.30;25.34;99562.59;106139;1253;72916;-76
2024/03/27 11:10:26;;;;;;;4.30;3.90;;;;;;;27.67;25.02;99558.13;106073;1253;61122;-77
2024/03/27 11:12:57;;;;;;;4.40;3.60;;;;;;;27.84;24.43;99558.42;106069;1253;61353;-76
2024/03/27 11:15:25;;;;;;;4.40;3.80;;;;;;;27.67;24.50;99557.60;106174;1253;74724;-75
2024/03/27 11:17:55;;;;;;;4.40;4.00;;;;;;;27.55;24.80;99562.27;106100;1253;72633;-76
2024/03/27 11:20:23;;;;;;;7.00;4.80;;;;;;;27.64;24.32;99559.54;106291;1253;72932;-78
2024/03/27 11:22:54;;;;;;;4.50;4.10;;;;;;;27.44;24.49;99553.75;106109;1253;61282;-78
2024/03/27 11:25:25;;;;;;;5.40;4.50;;;;;;;27.27;24.56;99542.12;106072;1253;61606;-78
2024/03/27 11:27:53;;;;;;;5.00;4.50;;;;;;;27.05;24.83;99546.66;106464;1253;76780;-80